Ana Sayfa
METAR-TAF:

METAR-TAF

Havaalanları :

Nalçik Havalimanı

Nalçik, Rusya

Enlem: 43-30-46N, Boylam: 043-38-12E, yükseklik: 445 m

Güncel hava durumu gözlemi

Rapor saat 12:30 UTC de 28 dakika önce yapıldı.
Rüzgar güneydoğudan 4 kt
Sıcaklık 26°C
Nem 32%
Basınç 1016 hPa
Görüş mesafesi 10 km veya daha fazla
az bulutlu
parçalı bulutlu

METAR: URMN 201230Z 13002MPS 9999 FEW/// SCT/// 26/08 Q1016 R24/010070 NOSIG RMK QFE725

Saat: 15:58 (12:58 UTC)

Tahmin

Rapor saat 11:00 UTC de 1 saat ve 58 dakika önce yapıldı.
Ayın 20'si saat 12 UTC'den ayın 20'si saat 21 UTC'ye kadar geçerli Tahmin
Rüzgar doğu/güneydoğudan 6 kt ve 16 kt'a kadar ani rüzgarlar
Görüş mesafesi 10 km veya daha fazla
3000 ft yükseklikte parçalı bulutlu

TAF: URMN 201100Z 2012/2021 12003G08MPS 9999 SCT030

4.000'den fazla havaalanı için hava durumu gözlemleri ve tahminleri (METAR ve TAF raporları).

Kullanılabilir istasyonlar harita üzerinde sarı ve kırmızı noktalarla gösterilir.

İstasyonun adını görmek için fareyi noktanın üzerinde gezdirin.

Sonrasında hava gözlem ve tahminlerini görmek için tıklayın.

Haritayı değiştirmek için: yaklaştırmak için siyah artı işaretli yeşil düğmeye ve uzaklaştırmak için de eksi işaretli düğmeye hızla tıklayın; bitişik haritalar için yeşil okları kullanın.


METAR-TAF: